sensor_id;sensor_type;location;lat;lon;timestamp;P1;durP1;ratioP1;P2;durP2;ratioP2
15406;SDS011;7802;51.568;6.364;2022-12-07T00:02:11;12.13;;;10.60;;
15406;SDS011;7802;51.568;6.364;2022-12-07T00:04:58;11.87;;;10.70;;
15406;SDS011;7802;51.568;6.364;2022-12-07T00:07:46;14.10;;;10.83;;
15406;SDS011;7802;51.568;6.364;2022-12-07T00:10:33;11.83;;;10.53;;
15406;SDS011;7802;51.568;6.364;2022-12-07T00:13:20;13.23;;;11.80;;
15406;SDS011;7802;51.568;6.364;2022-12-07T00:16:08;14.50;;;10.60;;
15406;SDS011;7802;51.568;6.364;2022-12-07T00:18:56;13.57;;;11.13;;
15406;SDS011;7802;51.568;6.364;2022-12-07T00:21:43;12.27;;;10.97;;
15406;SDS011;7802;51.568;6.364;2022-12-07T00:24:31;12.73;;;11.43;;
15406;SDS011;7802;51.568;6.364;2022-12-07T00:27:18;13.50;;;12.10;;
15406;SDS011;7802;51.568;6.364;2022-12-07T00:30:05;12.50;;;11.20;;
15406;SDS011;7802;51.568;6.364;2022-12-07T00:32:53;14.03;;;11.67;;
15406;SDS011;7802;51.568;6.364;2022-12-07T00:35:40;16.63;;;11.30;;
15406;SDS011;7802;51.568;6.364;2022-12-07T00:38:27;14.60;;;12.47;;
15406;SDS011;7802;51.568;6.364;2022-12-07T00:41:16;15.23;;;11.70;;
15406;SDS011;7802;51.568;6.364;2022-12-07T00:44:05;13.23;;;11.83;;
15406;SDS011;7802;51.568;6.364;2022-12-07T00:46:52;12.50;;;11.27;;
15406;SDS011;7802;51.568;6.364;2022-12-07T00:49:42;15.03;;;11.90;;
15406;SDS011;7802;51.568;6.364;2022-12-07T00:52:28;12.80;;;11.43;;
15406;SDS011;7802;51.568;6.364;2022-12-07T00:55:16;14.60;;;11.63;;
15406;SDS011;7802;51.568;6.364;2022-12-07T00:58:03;14.70;;;11.80;;
15406;SDS011;7802;51.568;6.364;2022-12-07T01:00:50;12.80;;;11.43;;
15406;SDS011;7802;51.568;6.364;2022-12-07T01:03:37;12.73;;;10.97;;
15406;SDS011;7802;51.568;6.364;2022-12-07T01:06:24;13.20;;;11.17;;
15406;SDS011;7802;51.568;6.364;2022-12-07T01:09:12;12.00;;;10.73;;
15406;SDS011;7802;51.568;6.364;2022-12-07T01:11:58;11.33;;;10.13;;
15406;SDS011;7802;51.568;6.364;2022-12-07T01:14:46;13.23;;;10.97;;
15406;SDS011;7802;51.568;6.364;2022-12-07T01:17:33;13.57;;;11.33;;
15406;SDS011;7802;51.568;6.364;2022-12-07T01:20:20;12.67;;;10.97;;
15406;SDS011;7802;51.568;6.364;2022-12-07T01:23:07;14.10;;;11.00;;
15406;SDS011;7802;51.568;6.364;2022-12-07T01:25:55;12.70;;;11.07;;
15406;SDS011;7802;51.568;6.364;2022-12-07T01:28:42;13.03;;;11.63;;
15406;SDS011;7802;51.568;6.364;2022-12-07T01:31:30;13.70;;;11.30;;
15406;SDS011;7802;51.568;6.364;2022-12-07T01:34:17;11.87;;;10.60;;
15406;SDS011;7802;51.568;6.364;2022-12-07T01:37:04;13.20;;;10.47;;
15406;SDS011;7802;51.568;6.364;2022-12-07T01:39:51;12.87;;;11.57;;
15406;SDS011;7802;51.568;6.364;2022-12-07T01:42:38;14.13;;;11.73;;
15406;SDS011;7802;51.568;6.364;2022-12-07T01:45:34;12.17;;;10.97;;
15406;SDS011;7802;51.568;6.364;2022-12-07T01:48:26;12.77;;;11.47;;
15406;SDS011;7802;51.568;6.364;2022-12-07T01:51:16;13.00;;;11.40;;
15406;SDS011;7802;51.568;6.364;2022-12-07T01:54:03;13.67;;;11.47;;
15406;SDS011;7802;51.568;6.364;2022-12-07T01:56:51;13.30;;;11.90;;
15406;SDS011;7802;51.568;6.364;2022-12-07T01:59:41;15.67;;;12.03;;
15406;SDS011;7802;51.568;6.364;2022-12-07T02:02:31;13.47;;;11.80;;
15406;SDS011;7802;51.568;6.364;2022-12-07T02:05:21;17.13;;;12.40;;
15406;SDS011;7802;51.568;6.364;2022-12-07T02:08:10;16.00;;;11.53;;
15406;SDS011;7802;51.568;6.364;2022-12-07T02:10:58;12.90;;;11.50;;
15406;SDS011;7802;51.568;6.364;2022-12-07T02:13:46;12.20;;;10.90;;
15406;SDS011;7802;51.568;6.364;2022-12-07T02:16:34;13.07;;;11.60;;
15406;SDS011;7802;51.568;6.364;2022-12-07T02:19:43;12.00;;;10.70;;
15406;SDS011;7802;51.568;6.364;2022-12-07T02:26:25;12.47;;;11.23;;
15406;SDS011;7802;51.568;6.364;2022-12-07T02:29:35;13.73;;;10.90;;
15406;SDS011;7802;51.568;6.364;2022-12-07T02:32:27;12.93;;;10.63;;
15406;SDS011;7802;51.568;6.364;2022-12-07T02:35:24;15.37;;;11.33;;
15406;SDS011;7802;51.568;6.364;2022-12-07T02:38:16;13.40;;;10.97;;
15406;SDS011;7802;51.568;6.364;2022-12-07T02:41:07;13.67;;;10.77;;
15406;SDS011;7802;51.568;6.364;2022-12-07T02:43:59;13.77;;;11.20;;
15406;SDS011;7802;51.568;6.364;2022-12-07T02:46:49;13.67;;;11.50;;
15406;SDS011;7802;51.568;6.364;2022-12-07T02:49:40;13.10;;;11.73;;
15406;SDS011;7802;51.568;6.364;2022-12-07T02:52:28;13.57;;;11.50;;
15406;SDS011;7802;51.568;6.364;2022-12-07T02:55:15;13.03;;;11.07;;
15406;SDS011;7802;51.568;6.364;2022-12-07T02:58:08;12.23;;;10.50;;
15406;SDS011;7802;51.568;6.364;2022-12-07T03:01:04;13.77;;;11.33;;
15406;SDS011;7802;51.568;6.364;2022-12-07T03:04:00;14.50;;;11.03;;
15406;SDS011;7802;51.568;6.364;2022-12-07T03:06:56;13.77;;;10.80;;
15406;SDS011;7802;51.568;6.364;2022-12-07T03:09:48;14.30;;;10.47;;
15406;SDS011;7802;51.568;6.364;2022-12-07T03:12:42;12.67;;;10.67;;
15406;SDS011;7802;51.568;6.364;2022-12-07T03:15:35;13.53;;;10.77;;
15406;SDS011;7802;51.568;6.364;2022-12-07T03:18:28;14.37;;;11.53;;
15406;SDS011;7802;51.568;6.364;2022-12-07T03:21:18;14.13;;;11.40;;
15406;SDS011;7802;51.568;6.364;2022-12-07T03:24:09;12.53;;;10.23;;
15406;SDS011;7802;51.568;6.364;2022-12-07T03:27:01;11.47;;;10.17;;
15406;SDS011;7802;51.568;6.364;2022-12-07T03:29:54;12.40;;;11.10;;
15406;SDS011;7802;51.568;6.364;2022-12-07T03:32:47;11.77;;;10.53;;
15406;SDS011;7802;51.568;6.364;2022-12-07T03:35:39;12.27;;;10.77;;
15406;SDS011;7802;51.568;6.364;2022-12-07T03:38:31;12.90;;;11.27;;
15406;SDS011;7802;51.568;6.364;2022-12-07T03:41:25;12.97;;;11.53;;
15406;SDS011;7802;51.568;6.364;2022-12-07T03:44:15;16.63;;;12.50;;
15406;SDS011;7802;51.568;6.364;2022-12-07T03:47:03;17.00;;;13.20;;
15406;SDS011;7802;51.568;6.364;2022-12-07T03:49:58;13.87;;;12.27;;
15406;SDS011;7802;51.568;6.364;2022-12-07T03:52:51;12.80;;;11.40;;
15406;SDS011;7802;51.568;6.364;2022-12-07T03:55:43;16.07;;;12.03;;
15406;SDS011;7802;51.568;6.364;2022-12-07T03:58:33;16.83;;;11.33;;
15406;SDS011;7802;51.568;6.364;2022-12-07T04:01:22;13.00;;;10.73;;
15406;SDS011;7802;51.568;6.364;2022-12-07T04:04:09;13.67;;;11.47;;
15406;SDS011;7802;51.568;6.364;2022-12-07T04:06:57;13.70;;;10.70;;
15406;SDS011;7802;51.568;6.364;2022-12-07T04:09:43;11.83;;;10.40;;
15406;SDS011;7802;51.568;6.364;2022-12-07T04:12:31;14.87;;;10.37;;
15406;SDS011;7802;51.568;6.364;2022-12-07T04:15:18;14.80;;;10.93;;
15406;SDS011;7802;51.568;6.364;2022-12-07T04:18:05;14.80;;;11.53;;
15406;SDS011;7802;51.568;6.364;2022-12-07T04:20:52;13.90;;;11.00;;
15406;SDS011;7802;51.568;6.364;2022-12-07T04:23:39;15.33;;;10.60;;
15406;SDS011;7802;51.568;6.364;2022-12-07T04:26:26;13.20;;;10.90;;
15406;SDS011;7802;51.568;6.364;2022-12-07T04:29:14;14.07;;;10.70;;
15406;SDS011;7802;51.568;6.364;2022-12-07T04:32:02;12.97;;;10.10;;
15406;SDS011;7802;51.568;6.364;2022-12-07T04:34:49;16.17;;;10.40;;
15406;SDS011;7802;51.568;6.364;2022-12-07T04:37:41;12.93;;;10.10;;
15406;SDS011;7802;51.568;6.364;2022-12-07T04:40:28;11.43;;;10.23;;
15406;SDS011;7802;51.568;6.364;2022-12-07T04:43:15;11.93;;;9.90;;
15406;SDS011;7802;51.568;6.364;2022-12-07T04:46:21;13.80;;;10.00;;
15406;SDS011;7802;51.568;6.364;2022-12-07T04:49:09;10.03;;;9.03;;
15406;SDS011;7802;51.568;6.364;2022-12-07T04:51:56;12.67;;;9.70;;
15406;SDS011;7802;51.568;6.364;2022-12-07T04:54:44;12.27;;;9.17;;
15406;SDS011;7802;51.568;6.364;2022-12-07T04:57:31;14.00;;;9.70;;
15406;SDS011;7802;51.568;6.364;2022-12-07T05:00:18;13.13;;;9.03;;
15406;SDS011;7802;51.568;6.364;2022-12-07T05:03:06;10.57;;;9.53;;
15406;SDS011;7802;51.568;6.364;2022-12-07T05:05:53;15.47;;;9.87;;
15406;SDS011;7802;51.568;6.364;2022-12-07T05:08:40;9.83;;;8.83;;
15406;SDS011;7802;51.568;6.364;2022-12-07T05:11:28;13.50;;;9.70;;
15406;SDS011;7802;51.568;6.364;2022-12-07T05:14:25;10.30;;;8.77;;
15406;SDS011;7802;51.568;6.364;2022-12-07T05:17:12;10.87;;;9.00;;
15406;SDS011;7802;51.568;6.364;2022-12-07T05:20:00;13.40;;;9.27;;
15406;SDS011;7802;51.568;6.364;2022-12-07T05:22:48;12.00;;;9.27;;
15406;SDS011;7802;51.568;6.364;2022-12-07T05:25:35;9.83;;;8.40;;
15406;SDS011;7802;51.568;6.364;2022-12-07T05:28:22;9.87;;;8.87;;
15406;SDS011;7802;51.568;6.364;2022-12-07T05:31:09;9.70;;;8.43;;
15406;SDS011;7802;51.568;6.364;2022-12-07T05:33:56;10.70;;;8.30;;
15406;SDS011;7802;51.568;6.364;2022-12-07T05:36:44;9.93;;;8.27;;
15406;SDS011;7802;51.568;6.364;2022-12-07T05:39:31;10.80;;;8.07;;
15406;SDS011;7802;51.568;6.364;2022-12-07T05:42:18;9.77;;;7.93;;
15406;SDS011;7802;51.568;6.364;2022-12-07T05:45:05;12.87;;;9.30;;
15406;SDS011;7802;51.568;6.364;2022-12-07T05:47:53;12.87;;;9.67;;
15406;SDS011;7802;51.568;6.364;2022-12-07T05:50:40;11.37;;;8.47;;
15406;SDS011;7802;51.568;6.364;2022-12-07T05:53:28;9.97;;;8.07;;
15406;SDS011;7802;51.568;6.364;2022-12-07T05:56:15;11.97;;;8.03;;
15406;SDS011;7802;51.568;6.364;2022-12-07T05:59:02;10.17;;;9.13;;
15406;SDS011;7802;51.568;6.364;2022-12-07T06:02:09;12.23;;;8.63;;
15406;SDS011;7802;51.568;6.364;2022-12-07T06:04:57;12.67;;;7.90;;
15406;SDS011;7802;51.568;6.364;2022-12-07T06:07:44;10.13;;;7.70;;
15406;SDS011;7802;51.568;6.364;2022-12-07T06:10:32;9.57;;;7.30;;
15406;SDS011;7802;51.568;6.364;2022-12-07T06:13:19;10.13;;;7.30;;
15406;SDS011;7802;51.568;6.364;2022-12-07T06:16:05;8.23;;;7.10;;
15406;SDS011;7802;51.568;6.364;2022-12-07T06:18:53;10.50;;;6.83;;
15406;SDS011;7802;51.568;6.364;2022-12-07T06:21:40;8.17;;;7.03;;
15406;SDS011;7802;51.568;6.364;2022-12-07T06:24:27;8.40;;;6.73;;
15406;SDS011;7802;51.568;6.364;2022-12-07T06:27:15;9.90;;;6.93;;
15406;SDS011;7802;51.568;6.364;2022-12-07T06:30:02;8.13;;;6.73;;
15406;SDS011;7802;51.568;6.364;2022-12-07T06:32:52;6.90;;;6.30;;
15406;SDS011;7802;51.568;6.364;2022-12-07T06:35:39;8.83;;;6.83;;
15406;SDS011;7802;51.568;6.364;2022-12-07T06:38:26;10.53;;;6.53;;
15406;SDS011;7802;51.568;6.364;2022-12-07T06:41:13;9.57;;;6.83;;
15406;SDS011;7802;51.568;6.364;2022-12-07T06:44:00;9.73;;;7.13;;
15406;SDS011;7802;51.568;6.364;2022-12-07T06:46:47;9.47;;;6.17;;
15406;SDS011;7802;51.568;6.364;2022-12-07T06:49:35;10.10;;;6.63;;
15406;SDS011;7802;51.568;6.364;2022-12-07T06:52:22;7.57;;;5.93;;
15406;SDS011;7802;51.568;6.364;2022-12-07T06:55:09;7.23;;;5.87;;
15406;SDS011;7802;51.568;6.364;2022-12-07T06:57:56;8.57;;;6.03;;
15406;SDS011;7802;51.568;6.364;2022-12-07T07:00:44;10.97;;;5.93;;
15406;SDS011;7802;51.568;6.364;2022-12-07T07:03:31;9.93;;;5.77;;
15406;SDS011;7802;51.568;6.364;2022-12-07T07:06:18;9.60;;;6.63;;
15406;SDS011;7802;51.568;6.364;2022-12-07T07:09:05;6.93;;;6.23;;
15406;SDS011;7802;51.568;6.364;2022-12-07T07:11:52;11.10;;;6.30;;
15406;SDS011;7802;51.568;6.364;2022-12-07T07:14:39;6.27;;;4.97;;
15406;SDS011;7802;51.568;6.364;2022-12-07T07:17:26;7.80;;;5.50;;
15406;SDS011;7802;51.568;6.364;2022-12-07T07:20:14;6.20;;;5.43;;
15406;SDS011;7802;51.568;6.364;2022-12-07T07:23:01;7.07;;;5.33;;
15406;SDS011;7802;51.568;6.364;2022-12-07T07:25:48;11.07;;;5.60;;
15406;SDS011;7802;51.568;6.364;2022-12-07T07:28:35;6.97;;;5.30;;
15406;SDS011;7802;51.568;6.364;2022-12-07T07:31:22;7.80;;;5.30;;
15406;SDS011;7802;51.568;6.364;2022-12-07T07:34:10;8.50;;;5.77;;
15406;SDS011;7802;51.568;6.364;2022-12-07T07:36:57;7.47;;;5.50;;
15406;SDS011;7802;51.568;6.364;2022-12-07T07:39:44;5.83;;;4.90;;
15406;SDS011;7802;51.568;6.364;2022-12-07T07:42:31;6.70;;;5.60;;
15406;SDS011;7802;51.568;6.364;2022-12-07T07:45:18;6.80;;;5.13;;
15406;SDS011;7802;51.568;6.364;2022-12-07T07:48:05;7.03;;;6.17;;
15406;SDS011;7802;51.568;6.364;2022-12-07T07:50:53;8.57;;;5.87;;
15406;SDS011;7802;51.568;6.364;2022-12-07T07:53:40;6.30;;;5.57;;
15406;SDS011;7802;51.568;6.364;2022-12-07T07:56:26;8.30;;;6.30;;
15406;SDS011;7802;51.568;6.364;2022-12-07T07:59:15;9.23;;;6.20;;
15406;SDS011;7802;51.568;6.364;2022-12-07T08:02:02;8.47;;;6.30;;
15406;SDS011;7802;51.568;6.364;2022-12-07T08:04:49;8.67;;;6.40;;
15406;SDS011;7802;51.568;6.364;2022-12-07T08:07:37;8.77;;;6.13;;
15406;SDS011;7802;51.568;6.364;2022-12-07T08:10:24;6.57;;;5.80;;
15406;SDS011;7802;51.568;6.364;2022-12-07T08:13:11;11.10;;;6.07;;
15406;SDS011;7802;51.568;6.364;2022-12-07T08:16:02;12.00;;;6.10;;
15406;SDS011;7802;51.568;6.364;2022-12-07T08:18:50;7.33;;;6.30;;
15406;SDS011;7802;51.568;6.364;2022-12-07T08:21:37;8.83;;;7.07;;
15406;SDS011;7802;51.568;6.364;2022-12-07T08:24:25;10.80;;;7.30;;
15406;SDS011;7802;51.568;6.364;2022-12-07T08:27:12;8.63;;;6.93;;
15406;SDS011;7802;51.568;6.364;2022-12-07T08:29:59;7.93;;;7.13;;
15406;SDS011;7802;51.568;6.364;2022-12-07T08:32:47;9.43;;;7.40;;
15406;SDS011;7802;51.568;6.364;2022-12-07T08:35:34;9.20;;;7.80;;
15406;SDS011;7802;51.568;6.364;2022-12-07T08:38:21;11.87;;;8.03;;
15406;SDS011;7802;51.568;6.364;2022-12-07T08:41:15;8.97;;;7.50;;
15406;SDS011;7802;51.568;6.364;2022-12-07T08:44:02;10.80;;;7.83;;
15406;SDS011;7802;51.568;6.364;2022-12-07T08:46:49;10.37;;;7.90;;
15406;SDS011;7802;51.568;6.364;2022-12-07T08:49:40;12.40;;;7.77;;
15406;SDS011;7802;51.568;6.364;2022-12-07T08:52:30;10.77;;;8.27;;
15406;SDS011;7802;51.568;6.364;2022-12-07T08:55:17;12.90;;;8.80;;
15406;SDS011;7802;51.568;6.364;2022-12-07T08:58:06;9.87;;;8.50;;
15406;SDS011;7802;51.568;6.364;2022-12-07T09:00:53;12.00;;;8.37;;
15406;SDS011;7802;51.568;6.364;2022-12-07T09:03:40;11.63;;;8.07;;
15406;SDS011;7802;51.568;6.364;2022-12-07T09:06:27;11.80;;;8.20;;
15406;SDS011;7802;51.568;6.364;2022-12-07T09:09:14;11.53;;;7.67;;
15406;SDS011;7802;51.568;6.364;2022-12-07T09:12:01;12.97;;;9.07;;
15406;SDS011;7802;51.568;6.364;2022-12-07T09:14:49;9.20;;;7.83;;
15406;SDS011;7802;51.568;6.364;2022-12-07T09:17:36;12.30;;;8.13;;
15406;SDS011;7802;51.568;6.364;2022-12-07T09:20:23;9.30;;;7.53;;
15406;SDS011;7802;51.568;6.364;2022-12-07T09:23:14;8.43;;;7.47;;
15406;SDS011;7802;51.568;6.364;2022-12-07T09:26:01;11.43;;;7.10;;
15406;SDS011;7802;51.568;6.364;2022-12-07T09:28:56;12.73;;;7.70;;
15406;SDS011;7802;51.568;6.364;2022-12-07T09:31:43;15.10;;;7.27;;
15406;SDS011;7802;51.568;6.364;2022-12-07T09:34:30;8.80;;;7.40;;
15406;SDS011;7802;51.568;6.364;2022-12-07T09:37:17;11.27;;;7.07;;
15406;SDS011;7802;51.568;6.364;2022-12-07T09:40:05;9.13;;;7.07;;
15406;SDS011;7802;51.568;6.364;2022-12-07T09:42:53;11.27;;;6.37;;
15406;SDS011;7802;51.568;6.364;2022-12-07T10:00:34;6.87;;;5.47;;
15406;SDS011;7802;51.568;6.364;2022-12-07T10:03:21;7.23;;;5.03;;
15406;SDS011;7802;51.568;6.364;2022-12-07T10:10:34;7.10;;;4.70;;
15406;SDS011;7802;51.568;6.364;2022-12-07T10:22:41;5.70;;;3.90;;
15406;SDS011;7802;51.568;6.364;2022-12-07T10:27:22;6.03;;;3.60;;
15406;SDS011;7802;51.568;6.364;2022-12-07T10:30:15;5.53;;;3.50;;
15406;SDS011;7802;51.568;6.364;2022-12-07T10:33:15;4.30;;;3.90;;
15406;SDS011;7802;51.568;6.364;2022-12-07T10:41:21;5.73;;;3.70;;
15406;SDS011;7802;51.568;6.364;2022-12-07T10:50:38;4.57;;;3.90;;
15406;SDS011;7802;51.568;6.364;2022-12-07T10:54:00;6.57;;;3.90;;
15406;SDS011;7802;51.568;6.364;2022-12-07T10:57:01;4.40;;;3.67;;
15406;SDS011;7802;51.568;6.364;2022-12-07T11:00:04;4.70;;;3.90;;
15406;SDS011;7802;51.568;6.364;2022-12-07T11:03:09;6.67;;;3.77;;
15406;SDS011;7802;51.568;6.364;2022-12-07T11:06:27;8.40;;;3.40;;
15406;SDS011;7802;51.568;6.364;2022-12-07T11:09:31;7.43;;;4.10;;
15406;SDS011;7802;51.568;6.364;2022-12-07T11:12:59;5.77;;;3.53;;
15406;SDS011;7802;51.568;6.364;2022-12-07T11:16:01;5.47;;;3.70;;
15406;SDS011;7802;51.568;6.364;2022-12-07T11:18:57;9.30;;;3.40;;
15406;SDS011;7802;51.568;6.364;2022-12-07T11:21:53;4.40;;;3.40;;
15406;SDS011;7802;51.568;6.364;2022-12-07T11:24:45;5.47;;;3.37;;
15406;SDS011;7802;51.568;6.364;2022-12-07T11:27:37;6.33;;;3.80;;
15406;SDS011;7802;51.568;6.364;2022-12-07T11:30:32;6.23;;;3.60;;
15406;SDS011;7802;51.568;6.364;2022-12-07T11:33:27;4.53;;;3.60;;
15406;SDS011;7802;51.568;6.364;2022-12-07T11:36:28;5.77;;;3.73;;
15406;SDS011;7802;51.568;6.364;2022-12-07T11:39:24;6.30;;;3.73;;
15406;SDS011;7802;51.568;6.364;2022-12-07T11:42:16;6.30;;;3.73;;
15406;SDS011;7802;51.568;6.364;2022-12-07T11:45:10;7.03;;;3.70;;
15406;SDS011;7802;51.568;6.364;2022-12-07T11:48:02;5.43;;;3.70;;
15406;SDS011;7802;51.568;6.364;2022-12-07T11:50:54;7.33;;;4.00;;
15406;SDS011;7802;51.568;6.364;2022-12-07T11:53:51;6.97;;;3.50;;
15406;SDS011;7802;51.568;6.364;2022-12-07T11:56:40;4.97;;;3.80;;
15406;SDS011;7802;51.568;6.364;2022-12-07T11:59:29;4.27;;;3.40;;
15406;SDS011;7802;51.568;6.364;2022-12-07T12:02:23;5.27;;;3.10;;
15406;SDS011;7802;51.568;6.364;2022-12-07T12:05:16;5.33;;;2.77;;
15406;SDS011;7802;51.568;6.364;2022-12-07T12:08:11;6.10;;;3.47;;
15406;SDS011;7802;51.568;6.364;2022-12-07T12:11:25;6.20;;;2.97;;
15406;SDS011;7802;51.568;6.364;2022-12-07T12:14:30;5.17;;;3.03;;
15406;SDS011;7802;51.568;6.364;2022-12-07T12:20:43;3.90;;;2.50;;
15406;SDS011;7802;51.568;6.364;2022-12-07T12:23:36;3.43;;;2.63;;
15406;SDS011;7802;51.568;6.364;2022-12-07T12:26:28;3.53;;;2.40;;
15406;SDS011;7802;51.568;6.364;2022-12-07T12:29:19;7.37;;;3.20;;
15406;SDS011;7802;51.568;6.364;2022-12-07T12:32:16;6.70;;;2.83;;
15406;SDS011;7802;51.568;6.364;2022-12-07T12:35:28;5.17;;;2.70;;
15406;SDS011;7802;51.568;6.364;2022-12-07T12:38:24;4.63;;;2.60;;
15406;SDS011;7802;51.568;6.364;2022-12-07T12:51:35;5.07;;;2.30;;
15406;SDS011;7802;51.568;6.364;2022-12-07T12:54:24;5.13;;;2.60;;
15406;SDS011;7802;51.568;6.364;2022-12-07T12:57:15;5.27;;;2.47;;
15406;SDS011;7802;51.568;6.364;2022-12-07T13:00:15;4.43;;;2.40;;
15406;SDS011;7802;51.568;6.364;2022-12-07T13:03:04;6.23;;;2.30;;
15406;SDS011;7802;51.568;6.364;2022-12-07T13:06:17;5.37;;;2.50;;
15406;SDS011;7802;51.568;6.364;2022-12-07T13:09:15;3.53;;;2.17;;
15406;SDS011;7802;51.568;6.364;2022-12-07T13:12:12;4.83;;;2.13;;
15406;SDS011;7802;51.568;6.364;2022-12-07T13:15:00;5.83;;;2.60;;
15406;SDS011;7802;51.568;6.364;2022-12-07T13:17:59;2.57;;;2.37;;
15406;SDS011;7802;51.568;6.364;2022-12-07T13:20:50;4.30;;;2.43;;
15406;SDS011;7802;51.568;6.364;2022-12-07T13:23:52;4.60;;;2.50;;
15406;SDS011;7802;51.568;6.364;2022-12-07T13:26:42;3.90;;;2.30;;
15406;SDS011;7802;51.568;6.364;2022-12-07T13:29:35;3.83;;;2.50;;
15406;SDS011;7802;51.568;6.364;2022-12-07T13:32:23;4.20;;;2.30;;
15406;SDS011;7802;51.568;6.364;2022-12-07T13:35:30;4.63;;;2.60;;
15406;SDS011;7802;51.568;6.364;2022-12-07T13:38:22;3.73;;;2.50;;
15406;SDS011;7802;51.568;6.364;2022-12-07T13:41:14;9.17;;;2.40;;
15406;SDS011;7802;51.568;6.364;2022-12-07T13:44:02;5.13;;;2.00;;
15406;SDS011;7802;51.568;6.364;2022-12-07T13:46:57;5.97;;;2.40;;
15406;SDS011;7802;51.568;6.364;2022-12-07T13:49:51;6.70;;;2.63;;
15406;SDS011;7802;51.568;6.364;2022-12-07T13:52:43;5.07;;;2.00;;
15406;SDS011;7802;51.568;6.364;2022-12-07T13:55:30;4.90;;;2.20;;
15406;SDS011;7802;51.568;6.364;2022-12-07T13:58:17;6.77;;;2.50;;
15406;SDS011;7802;51.568;6.364;2022-12-07T14:01:04;7.33;;;2.27;;
15406;SDS011;7802;51.568;6.364;2022-12-07T14:04:26;3.17;;;2.00;;
15406;SDS011;7802;51.568;6.364;2022-12-07T14:07:21;4.80;;;2.53;;
15406;SDS011;7802;51.568;6.364;2022-12-07T14:10:22;4.67;;;2.40;;
15406;SDS011;7802;51.568;6.364;2022-12-07T14:13:24;5.20;;;2.40;;
15406;SDS011;7802;51.568;6.364;2022-12-07T14:16:18;3.77;;;2.10;;
15406;SDS011;7802;51.568;6.364;2022-12-07T14:22:34;7.13;;;2.50;;
15406;SDS011;7802;51.568;6.364;2022-12-07T14:25:23;3.63;;;2.20;;
15406;SDS011;7802;51.568;6.364;2022-12-07T14:28:24;6.87;;;2.70;;
15406;SDS011;7802;51.568;6.364;2022-12-07T14:31:13;8.07;;;2.77;;
15406;SDS011;7802;51.568;6.364;2022-12-07T14:34:12;4.70;;;2.60;;
15406;SDS011;7802;51.568;6.364;2022-12-07T14:36:59;8.67;;;3.13;;
15406;SDS011;7802;51.568;6.364;2022-12-07T14:39:46;4.10;;;2.17;;
15406;SDS011;7802;51.568;6.364;2022-12-07T14:42:33;8.17;;;2.53;;
15406;SDS011;7802;51.568;6.364;2022-12-07T14:45:21;5.63;;;2.83;;
15406;SDS011;7802;51.568;6.364;2022-12-07T14:48:10;4.40;;;2.43;;
15406;SDS011;7802;51.568;6.364;2022-12-07T14:51:18;6.50;;;2.80;;
15406;SDS011;7802;51.568;6.364;2022-12-07T14:54:25;4.17;;;2.77;;
15406;SDS011;7802;51.568;6.364;2022-12-07T14:57:16;3.27;;;2.73;;
15406;SDS011;7802;51.568;6.364;2022-12-07T15:00:03;3.20;;;2.50;;
15406;SDS011;7802;51.568;6.364;2022-12-07T15:02:51;6.23;;;2.90;;
15406;SDS011;7802;51.568;6.364;2022-12-07T15:05:39;5.87;;;2.67;;
15406;SDS011;7802;51.568;6.364;2022-12-07T15:08:26;3.53;;;2.40;;
15406;SDS011;7802;51.568;6.364;2022-12-07T15:11:14;4.70;;;2.60;;
15406;SDS011;7802;51.568;6.364;2022-12-07T15:14:02;3.30;;;3.00;;
15406;SDS011;7802;51.568;6.364;2022-12-07T15:16:56;9.07;;;2.73;;
15406;SDS011;7802;51.568;6.364;2022-12-07T15:20:04;3.70;;;2.50;;
15406;SDS011;7802;51.568;6.364;2022-12-07T15:22:55;6.10;;;2.60;;
15406;SDS011;7802;51.568;6.364;2022-12-07T15:25:42;5.57;;;2.33;;
15406;SDS011;7802;51.568;6.364;2022-12-07T15:28:30;3.23;;;2.50;;
15406;SDS011;7802;51.568;6.364;2022-12-07T15:31:17;4.93;;;2.37;;
15406;SDS011;7802;51.568;6.364;2022-12-07T15:34:24;3.87;;;2.23;;
15406;SDS011;7802;51.568;6.364;2022-12-07T15:37:16;2.87;;;2.30;;
15406;SDS011;7802;51.568;6.364;2022-12-07T15:40:04;5.33;;;2.40;;
15406;SDS011;7802;51.568;6.364;2022-12-07T15:43:20;5.97;;;2.50;;
15406;SDS011;7802;51.568;6.364;2022-12-07T15:46:29;3.53;;;2.23;;
15406;SDS011;7802;51.568;6.364;2022-12-07T15:49:18;3.53;;;2.40;;
15406;SDS011;7802;51.568;6.364;2022-12-07T15:52:05;4.03;;;2.30;;
15406;SDS011;7802;51.568;6.364;2022-12-07T15:54:52;2.67;;;1.97;;
15406;SDS011;7802;51.568;6.364;2022-12-07T15:57:39;2.43;;;1.93;;
15406;SDS011;7802;51.568;6.364;2022-12-07T16:00:26;2.93;;;2.17;;
15406;SDS011;7802;51.568;6.364;2022-12-07T16:03:13;3.20;;;2.13;;
15406;SDS011;7802;51.568;6.364;2022-12-07T16:06:00;2.90;;;2.40;;
15406;SDS011;7802;51.568;6.364;2022-12-07T16:08:47;3.20;;;2.60;;
15406;SDS011;7802;51.568;6.364;2022-12-07T16:11:34;4.87;;;2.50;;
15406;SDS011;7802;51.568;6.364;2022-12-07T16:14:21;3.40;;;2.13;;
15406;SDS011;7802;51.568;6.364;2022-12-07T16:17:09;4.67;;;1.87;;
15406;SDS011;7802;51.568;6.364;2022-12-07T16:19:56;2.87;;;1.90;;
15406;SDS011;7802;51.568;6.364;2022-12-07T16:22:43;3.07;;;2.30;;
15406;SDS011;7802;51.568;6.364;2022-12-07T16:25:30;3.50;;;2.00;;
15406;SDS011;7802;51.568;6.364;2022-12-07T16:28:17;3.03;;;1.80;;
15406;SDS011;7802;51.568;6.364;2022-12-07T16:31:05;4.13;;;2.03;;
15406;SDS011;7802;51.568;6.364;2022-12-07T16:33:54;2.40;;;1.77;;
15406;SDS011;7802;51.568;6.364;2022-12-07T16:36:42;4.70;;;1.73;;
15406;SDS011;7802;51.568;6.364;2022-12-07T16:39:50;1.87;;;1.33;;
15406;SDS011;7802;51.568;6.364;2022-12-07T16:42:37;1.67;;;1.50;;
15406;SDS011;7802;51.568;6.364;2022-12-07T16:45:23;1.87;;;1.40;;
15406;SDS011;7802;51.568;6.364;2022-12-07T16:48:10;3.17;;;1.40;;
15406;SDS011;7802;51.568;6.364;2022-12-07T16:50:58;4.03;;;1.43;;
15406;SDS011;7802;51.568;6.364;2022-12-07T16:53:50;1.43;;;1.33;;
15406;SDS011;7802;51.568;6.364;2022-12-07T16:56:39;2.43;;;1.30;;
15406;SDS011;7802;51.568;6.364;2022-12-07T16:59:26;2.60;;;1.40;;
15406;SDS011;7802;51.568;6.364;2022-12-07T17:02:13;4.30;;;1.63;;
15406;SDS011;7802;51.568;6.364;2022-12-07T17:05:00;1.77;;;1.50;;
15406;SDS011;7802;51.568;6.364;2022-12-07T17:07:47;2.00;;;1.40;;
15406;SDS011;7802;51.568;6.364;2022-12-07T17:10:36;3.97;;;1.53;;
15406;SDS011;7802;51.568;6.364;2022-12-07T17:13:36;3.40;;;1.40;;
15406;SDS011;7802;51.568;6.364;2022-12-07T17:16:41;2.97;;;1.50;;
15406;SDS011;7802;51.568;6.364;2022-12-07T17:19:28;2.93;;;1.20;;
15406;SDS011;7802;51.568;6.364;2022-12-07T17:22:15;2.77;;;1.73;;
15406;SDS011;7802;51.568;6.364;2022-12-07T17:25:02;2.40;;;1.67;;
15406;SDS011;7802;51.568;6.364;2022-12-07T17:27:51;1.97;;;1.80;;
15406;SDS011;7802;51.568;6.364;2022-12-07T17:30:38;2.87;;;1.60;;
15406;SDS011;7802;51.568;6.364;2022-12-07T17:33:25;3.10;;;1.67;;
15406;SDS011;7802;51.568;6.364;2022-12-07T17:36:13;1.90;;;1.70;;
15406;SDS011;7802;51.568;6.364;2022-12-07T17:39:01;2.73;;;2.03;;
15406;SDS011;7802;51.568;6.364;2022-12-07T17:41:52;2.00;;;1.90;;
15406;SDS011;7802;51.568;6.364;2022-12-07T17:45:01;4.53;;;2.87;;
15406;SDS011;7802;51.568;6.364;2022-12-07T17:47:49;3.53;;;2.20;;
15406;SDS011;7802;51.568;6.364;2022-12-07T17:50:35;2.80;;;2.60;;
15406;SDS011;7802;51.568;6.364;2022-12-07T17:53:43;2.87;;;2.60;;
15406;SDS011;7802;51.568;6.364;2022-12-07T17:56:29;3.73;;;3.07;;
15406;SDS011;7802;51.568;6.364;2022-12-07T17:59:16;4.50;;;3.67;;
15406;SDS011;7802;51.568;6.364;2022-12-07T18:02:04;4.43;;;3.50;;
15406;SDS011;7802;51.568;6.364;2022-12-07T18:04:52;4.83;;;3.97;;
15406;SDS011;7802;51.568;6.364;2022-12-07T18:07:39;6.83;;;4.23;;
15406;SDS011;7802;51.568;6.364;2022-12-07T18:10:26;4.37;;;3.97;;
15406;SDS011;7802;51.568;6.364;2022-12-07T18:13:13;5.40;;;4.33;;
15406;SDS011;7802;51.568;6.364;2022-12-07T18:16:18;5.47;;;4.10;;
15406;SDS011;7802;51.568;6.364;2022-12-07T18:19:08;5.77;;;4.83;;